createdAt,value
2023-02-11T00:01:34.206Z,17.97
2023-02-11T00:04:03.140Z,18.30
2023-02-11T00:06:32.212Z,19.87
2023-02-11T00:08:59.885Z,19.63
2023-02-11T00:11:30.947Z,19.77
2023-02-11T00:14:05.008Z,18.50
2023-02-11T00:16:32.378Z,19.17
2023-02-11T00:19:01.320Z,19.43
2023-02-11T00:21:29.323Z,18.50
2023-02-11T00:23:59.615Z,21.47
2023-02-11T00:26:34.081Z,19.57
2023-02-11T00:29:02.505Z,19.73
2023-02-11T00:31:32.733Z,21.47
2023-02-11T00:33:59.621Z,20.70
2023-02-11T00:36:28.703Z,18.67
2023-02-11T00:38:57.854Z,21.80
2023-02-11T00:41:26.029Z,21.80
2023-02-11T00:43:53.133Z,20.73
2023-02-11T00:46:21.370Z,21.67
2023-02-11T00:48:48.819Z,21.13
2023-02-11T00:51:15.806Z,19.80
2023-02-11T00:53:43.015Z,20.27
2023-02-11T00:56:10.529Z,21.17
2023-02-11T00:58:37.934Z,21.60
2023-02-11T01:01:05.065Z,20.17
2023-02-11T01:03:32.391Z,21.00
2023-02-11T01:05:59.752Z,20.07
2023-02-11T01:08:27.391Z,20.00
2023-02-11T01:11:00.784Z,20.37
2023-02-11T01:13:32.863Z,21.27
2023-02-11T01:15:59.967Z,19.33
2023-02-11T01:18:27.479Z,19.00
2023-02-11T01:20:54.847Z,20.63
2023-02-11T01:23:23.615Z,20.83
2023-02-11T01:25:51.529Z,18.90
2023-02-11T01:28:22.944Z,20.63
2023-02-11T01:30:50.228Z,19.70
2023-02-11T01:33:17.514Z,21.10
2023-02-11T01:35:45.247Z,21.53
2023-02-11T01:38:22.556Z,20.37
2023-02-11T01:41:21.577Z,19.70
2023-02-11T01:43:50.179Z,18.90
2023-02-11T01:46:38.029Z,19.17
2023-02-11T01:49:14.742Z,18.70
2023-02-11T01:52:09.293Z,21.33
2023-02-11T01:55:09.335Z,20.60
2023-02-11T01:57:39.585Z,19.83
2023-02-11T02:00:24.072Z,21.67
2023-02-11T02:02:58.271Z,21.77
2023-02-11T02:06:28.644Z,20.63
2023-02-11T02:09:03.682Z,18.53
2023-02-11T02:11:31.317Z,20.33
2023-02-11T02:13:58.297Z,20.80
2023-02-11T02:16:34.957Z,20.43
2023-02-11T02:19:35.768Z,20.23
2023-02-11T02:22:57.746Z,20.60
2023-02-11T02:25:36.293Z,20.73
2023-02-11T02:29:07.264Z,21.03
2023-02-11T02:32:02.051Z,19.60
2023-02-11T02:35:29.434Z,19.30
2023-02-11T02:38:18.820Z,20.00
2023-02-11T02:40:48.964Z,22.57
2023-02-11T02:43:17.301Z,20.60
2023-02-11T02:45:44.150Z,21.07
2023-02-11T02:48:30.572Z,20.93
2023-02-11T02:51:34.087Z,21.07
2023-02-11T02:54:31.329Z,19.23
2023-02-11T02:57:33.727Z,21.10
2023-02-11T03:00:38.411Z,19.43
2023-02-11T03:03:43.177Z,20.47
2023-02-11T03:06:56.468Z,22.20
2023-02-11T03:09:42.450Z,21.97
2023-02-11T03:12:13.561Z,21.20
2023-02-11T03:14:42.059Z,19.93
2023-02-11T03:17:10.474Z,20.83
2023-02-11T03:19:45.092Z,21.23
2023-02-11T03:22:30.362Z,21.47
2023-02-11T03:24:57.470Z,21.53
2023-02-11T03:27:43.196Z,20.23
2023-02-11T03:30:25.806Z,22.33
2023-02-11T03:33:01.007Z,21.67
2023-02-11T03:35:57.943Z,21.70
2023-02-11T03:38:33.296Z,20.80
2023-02-11T03:41:05.682Z,21.27
2023-02-11T03:43:41.881Z,19.73
2023-02-11T03:46:11.557Z,20.00
2023-02-11T03:48:48.040Z,17.90
2023-02-11T03:51:17.105Z,21.73
2023-02-11T03:53:46.871Z,21.13
2023-02-11T03:56:21.575Z,21.57
2023-02-11T03:58:49.156Z,20.77
2023-02-11T04:01:16.348Z,21.63
2023-02-11T04:03:43.235Z,23.37
2023-02-11T04:06:10.106Z,22.77
2023-02-11T04:08:37.107Z,24.63
2023-02-11T04:11:04.019Z,23.60
2023-02-11T04:13:30.868Z,22.47
2023-02-11T04:15:57.840Z,22.67
2023-02-11T04:18:24.765Z,23.27
2023-02-11T04:20:51.611Z,24.87
2023-02-11T04:23:18.417Z,22.67
2023-02-11T04:25:45.234Z,23.00
2023-02-11T04:28:12.246Z,21.77
2023-02-11T04:30:39.146Z,21.20
2023-02-11T04:33:06.003Z,22.83
2023-02-11T04:35:32.800Z,24.03
2023-02-11T04:37:59.632Z,21.60
2023-02-11T04:40:26.477Z,22.47
2023-02-11T04:42:53.304Z,22.33
2023-02-11T04:45:20.213Z,23.50
2023-02-11T04:47:47.029Z,22.90
2023-02-11T04:50:15.206Z,23.60
2023-02-11T04:52:41.975Z,22.30
2023-02-11T04:55:08.894Z,23.43
2023-02-11T04:57:35.753Z,22.83
2023-02-11T05:00:03.122Z,23.10
2023-02-11T05:02:29.916Z,23.67
2023-02-11T05:04:56.722Z,21.80
2023-02-11T05:07:23.697Z,24.10
2023-02-11T05:09:50.818Z,24.03
2023-02-11T05:12:18.172Z,24.53
2023-02-11T05:14:44.983Z,23.57
2023-02-11T05:17:11.784Z,25.43
2023-02-11T05:19:38.647Z,26.10
2023-02-11T05:22:05.490Z,24.90
2023-02-11T05:24:33.061Z,24.17
2023-02-11T05:27:00.454Z,26.87
2023-02-11T05:29:28.044Z,23.87
2023-02-11T05:31:54.900Z,23.70
2023-02-11T05:34:21.755Z,24.23
2023-02-11T05:36:48.559Z,24.80
2023-02-11T05:39:15.491Z,24.40
2023-02-11T05:41:42.338Z,25.10
2023-02-11T05:44:09.457Z,25.37
2023-02-11T05:46:36.662Z,23.80
2023-02-11T05:49:03.638Z,25.97
2023-02-11T05:51:30.468Z,23.70
2023-02-11T05:53:57.312Z,24.43
2023-02-11T05:56:24.173Z,25.23
2023-02-11T05:58:51.083Z,23.47
2023-02-11T06:01:19.267Z,24.97
2023-02-11T06:03:46.183Z,24.17
2023-02-11T06:06:13.172Z,25.83
2023-02-11T06:08:40.290Z,24.43
2023-02-11T06:11:07.325Z,24.87
2023-02-11T06:13:35.539Z,25.20
2023-02-11T06:16:03.595Z,24.43
2023-02-11T06:18:30.666Z,24.80
2023-02-11T06:20:57.519Z,24.30
2023-02-11T06:23:24.337Z,24.43
2023-02-11T06:25:53.108Z,23.67
2023-02-11T06:28:20.236Z,23.70
2023-02-11T06:30:47.245Z,24.50
2023-02-11T06:33:14.139Z,23.87
2023-02-11T06:35:41.094Z,24.07
2023-02-11T06:38:07.968Z,23.23
2023-02-11T06:40:34.869Z,23.90
2023-02-11T06:43:01.719Z,24.40
2023-02-11T06:45:28.625Z,23.77
2023-02-11T06:47:55.499Z,24.43
2023-02-11T06:50:22.602Z,22.60
2023-02-11T06:52:49.502Z,24.13
2023-02-11T06:55:16.735Z,24.33
2023-02-11T06:57:43.565Z,21.87
2023-02-11T07:00:11.323Z,22.80
2023-02-11T07:02:38.308Z,21.27
2023-02-11T07:05:07.203Z,22.43
2023-02-11T07:07:34.519Z,22.77
2023-02-11T07:10:03.923Z,22.63
2023-02-11T07:12:31.800Z,24.63
2023-02-11T07:14:58.789Z,22.93
2023-02-11T07:17:25.661Z,22.20
2023-02-11T07:19:52.610Z,20.70
2023-02-11T07:22:19.492Z,22.53
2023-02-11T07:24:46.360Z,22.33
2023-02-11T07:27:13.530Z,21.87
2023-02-11T07:29:42.634Z,19.30
2023-02-11T07:32:09.620Z,21.83
2023-02-11T07:34:36.622Z,21.57
2023-02-11T07:37:03.798Z,23.13
2023-02-11T07:39:30.643Z,20.33
2023-02-11T07:41:57.492Z,21.03
2023-02-11T07:44:24.953Z,17.83
2023-02-11T07:46:51.853Z,20.30
2023-02-11T07:49:18.727Z,19.30
2023-02-11T07:51:45.932Z,18.43
2023-02-11T07:54:12.790Z,19.33
2023-02-11T07:56:39.626Z,18.00
2023-02-11T07:59:06.431Z,16.70
2023-02-11T08:01:33.635Z,17.47
2023-02-11T08:04:02.082Z,17.37
2023-02-11T08:06:32.498Z,18.20
2023-02-11T08:09:05.884Z,15.67
2023-02-11T08:11:33.204Z,17.00
2023-02-11T08:14:00.147Z,16.50
2023-02-11T08:16:31.344Z,16.63
2023-02-11T08:19:02.191Z,15.47
2023-02-11T08:21:29.895Z,15.70
2023-02-11T08:23:57.384Z,14.73
2023-02-11T08:26:29.148Z,15.70
2023-02-11T08:28:57.663Z,15.17
2023-02-11T08:31:28.682Z,14.83
2023-02-11T08:33:58.029Z,14.00
2023-02-11T08:36:37.380Z,14.87
2023-02-11T08:39:18.574Z,14.63
2023-02-11T08:41:49.570Z,13.97
2023-02-11T08:44:18.698Z,13.00
2023-02-11T08:46:45.854Z,15.10
2023-02-11T08:49:13.030Z,15.37
2023-02-11T08:51:40.210Z,15.10
2023-02-11T08:54:09.723Z,14.57
2023-02-11T08:56:40.242Z,15.20
2023-02-11T08:59:09.289Z,15.43
2023-02-11T09:01:36.451Z,15.60
2023-02-11T09:04:03.588Z,15.87
2023-02-11T09:06:30.544Z,14.70
2023-02-11T09:08:58.661Z,16.53
2023-02-11T09:11:30.814Z,16.13
2023-02-11T09:13:57.706Z,14.43
2023-02-11T09:16:28.609Z,14.57
2023-02-11T09:19:00.649Z,14.67
2023-02-11T09:21:28.763Z,14.40
2023-02-11T09:23:56.917Z,16.93
2023-02-11T09:26:31.876Z,15.37
2023-02-11T09:28:59.880Z,17.07
2023-02-11T09:31:30.361Z,17.10
2023-02-11T09:34:02.459Z,16.80
2023-02-11T09:36:33.290Z,18.20
2023-02-11T09:39:02.351Z,18.73
2023-02-11T09:41:57.104Z,18.07
2023-02-11T09:44:29.383Z,17.43
2023-02-11T09:47:24.043Z,17.13
2023-02-11T09:50:00.182Z,18.43
2023-02-11T09:52:40.106Z,16.30
2023-02-11T09:55:21.058Z,15.70
2023-02-11T09:57:48.606Z,14.73
2023-02-11T10:01:24.301Z,16.60
2023-02-11T10:04:24.425Z,14.83
2023-02-11T10:07:14.549Z,17.47
2023-02-11T10:10:17.651Z,18.50
2023-02-11T10:13:19.056Z,16.03
2023-02-11T10:16:05.514Z,18.43
2023-02-11T10:19:13.848Z,15.93
2023-02-11T10:22:09.767Z,19.57
2023-02-11T10:24:38.104Z,18.77
2023-02-11T10:27:20.175Z,16.93
2023-02-11T10:30:02.607Z,20.33
2023-02-11T10:33:00.134Z,17.10
2023-02-11T10:35:27.223Z,17.73
2023-02-11T10:37:55.749Z,17.30
2023-02-11T10:40:30.867Z,18.47
2023-02-11T10:43:14.142Z,18.27
2023-02-11T10:45:56.643Z,18.13
2023-02-11T10:48:51.331Z,20.83
2023-02-11T10:51:21.289Z,18.63
2023-02-11T10:54:04.427Z,17.47
2023-02-11T10:56:38.424Z,19.07
2023-02-11T10:59:19.764Z,18.03
2023-02-11T11:01:56.753Z,18.40
2023-02-11T11:04:34.509Z,18.20
2023-02-11T11:07:24.940Z,19.10
2023-02-11T11:10:00.273Z,18.87
2023-02-11T11:12:47.170Z,17.17
2023-02-11T11:15:24.053Z,17.20
2023-02-11T11:18:20.813Z,19.90
2023-02-11T11:21:07.176Z,18.73
2023-02-11T11:23:37.556Z,18.43
2023-02-11T11:26:12.519Z,19.87
2023-02-11T11:29:02.365Z,20.60
2023-02-11T11:31:45.330Z,19.57
2023-02-11T11:34:23.038Z,18.70
2023-02-11T11:36:50.763Z,20.57
2023-02-11T11:39:26.012Z,19.77
2023-02-11T11:42:06.139Z,19.90
2023-02-11T11:44:39.793Z,19.07
2023-02-11T11:47:26.994Z,18.57
2023-02-11T11:50:21.163Z,17.43
2023-02-11T11:53:15.380Z,18.97
2023-02-11T11:56:05.722Z,21.20
2023-02-11T11:58:33.959Z,18.80
2023-02-11T12:01:15.687Z,18.27
2023-02-11T12:04:18.593Z,21.07
2023-02-11T12:07:27.011Z,20.63
2023-02-11T12:10:24.563Z,19.80
2023-02-11T12:13:12.309Z,20.30
2023-02-11T12:16:19.492Z,20.90
2023-02-11T12:19:24.393Z,23.63
2023-02-11T12:22:07.833Z,22.57
2023-02-11T12:25:22.917Z,22.07
2023-02-11T12:28:23.699Z,20.47
2023-02-11T12:31:26.718Z,19.77
2023-02-11T12:34:27.409Z,20.37
2023-02-11T12:37:35.142Z,20.23
2023-02-11T12:40:28.546Z,21.87
2023-02-11T12:43:24.963Z,20.00
2023-02-11T12:46:30.185Z,23.20
2023-02-11T12:49:30.508Z,20.27
2023-02-11T12:52:30.688Z,20.50
2023-02-11T12:55:18.087Z,21.70
2023-02-11T12:57:47.786Z,20.13
2023-02-11T13:00:19.616Z,20.13
2023-02-11T13:03:18.859Z,21.07
2023-02-11T13:06:07.621Z,23.00
2023-02-11T13:08:43.135Z,22.27
2023-02-11T13:11:24.100Z,20.13
2023-02-11T13:14:21.834Z,21.67
2023-02-11T13:16:50.949Z,21.37
2023-02-11T13:19:48.136Z,22.43
2023-02-11T13:22:44.009Z,20.73
2023-02-11T13:25:37.766Z,22.37
2023-02-11T13:28:23.150Z,24.43
2023-02-11T13:31:01.810Z,23.40
2023-02-11T13:33:43.184Z,22.93
2023-02-11T13:36:14.432Z,25.63
2023-02-11T13:38:52.346Z,26.67
2023-02-11T13:41:52.253Z,23.63
2023-02-11T13:44:27.502Z,24.67
2023-02-11T13:47:05.013Z,24.97
2023-02-11T13:49:41.029Z,22.07
2023-02-11T13:52:29.437Z,26.57
2023-02-11T13:55:07.652Z,25.90
2023-02-11T13:57:37.622Z,22.37
2023-02-11T14:00:39.096Z,23.30
2023-02-11T14:03:30.289Z,21.80
2023-02-11T14:06:27.715Z,22.97
2023-02-11T14:09:09.416Z,27.93
2023-02-11T14:11:51.166Z,29.60
2023-02-11T14:14:22.564Z,26.47
2023-02-11T14:17:01.097Z,27.37
2023-02-11T14:19:43.957Z,23.43
2023-02-11T14:22:43.511Z,22.93
2023-02-11T14:25:39.654Z,24.20
2023-02-11T14:28:24.085Z,21.63
2023-02-11T14:31:07.610Z,23.67
2023-02-11T14:34:04.833Z,26.67
2023-02-11T14:36:44.550Z,24.87
2023-02-11T14:39:46.361Z,28.80
2023-02-11T14:42:22.360Z,27.57
2023-02-11T14:44:52.145Z,25.17
2023-02-11T14:47:24.866Z,26.00
2023-02-11T14:49:51.897Z,21.97
2023-02-11T14:52:31.710Z,25.50
2023-02-11T14:55:26.443Z,24.03
2023-02-11T14:58:16.500Z,23.93
2023-02-11T15:00:56.380Z,22.47
2023-02-11T15:03:30.019Z,26.77
2023-02-11T15:06:08.203Z,25.90
2023-02-11T15:08:41.950Z,23.57
2023-02-11T15:11:15.527Z,25.27
2023-02-11T15:13:49.627Z,19.23
2023-02-11T15:16:22.521Z,24.90
2023-02-11T15:18:55.936Z,25.77
2023-02-11T15:21:30.416Z,23.63
2023-02-11T15:24:20.392Z,23.37
2023-02-11T15:27:04.434Z,21.73
2023-02-11T15:29:41.743Z,23.93
2023-02-11T15:32:25.841Z,21.80
2023-02-11T15:34:54.392Z,24.07
2023-02-11T15:37:29.569Z,25.97
2023-02-11T15:40:18.786Z,23.60
2023-02-11T15:42:58.720Z,20.27
2023-02-11T15:45:33.430Z,20.93
2023-02-11T15:48:18.491Z,20.70
2023-02-11T15:50:54.122Z,21.50
2023-02-11T15:53:40.338Z,21.73
2023-02-11T15:56:59.578Z,23.30
2023-02-11T15:59:35.881Z,22.33
2023-02-11T16:02:26.215Z,22.27
2023-02-11T16:05:03.699Z,20.73
2023-02-11T16:07:49.629Z,18.10
2023-02-11T16:10:21.007Z,22.53
2023-02-11T16:13:11.035Z,23.13
2023-02-11T16:15:55.696Z,19.50
2023-02-11T16:18:39.574Z,19.90
2023-02-11T16:21:17.912Z,20.03
2023-02-11T16:23:53.817Z,20.33
2023-02-11T16:26:34.256Z,17.30
2023-02-11T16:29:15.844Z,19.77
2023-02-11T16:31:46.597Z,18.77
2023-02-11T16:34:21.425Z,17.63
2023-02-11T16:36:49.772Z,20.60
2023-02-11T16:39:22.309Z,18.63
2023-02-11T16:41:50.640Z,19.37
2023-02-11T16:44:18.601Z,21.43
2023-02-11T16:46:46.092Z,19.47
2023-02-11T16:49:24.498Z,18.97
2023-02-11T16:51:56.702Z,20.97
2023-02-11T16:54:24.008Z,22.13
2023-02-11T16:56:50.884Z,18.67
2023-02-11T16:59:17.680Z,18.30
2023-02-11T17:01:46.323Z,20.07
2023-02-11T17:04:25.044Z,21.70
2023-02-11T17:06:52.055Z,21.00
2023-02-11T17:09:30.337Z,22.00
2023-02-11T17:11:57.753Z,19.63
2023-02-11T17:14:24.562Z,21.50
2023-02-11T17:16:51.831Z,23.07
2023-02-11T17:19:23.460Z,19.93
2023-02-11T17:21:52.646Z,20.40
2023-02-11T17:24:21.497Z,20.80
2023-02-11T17:26:49.405Z,22.47
2023-02-11T17:29:20.780Z,23.20
2023-02-11T17:31:47.727Z,21.50
2023-02-11T17:34:16.515Z,22.73
2023-02-11T17:36:43.351Z,23.70
2023-02-11T17:39:10.913Z,21.27
2023-02-11T17:41:39.335Z,22.87
2023-02-11T17:44:08.172Z,23.93
2023-02-11T17:46:35.963Z,22.70
2023-02-11T17:49:04.071Z,23.10
2023-02-11T17:51:38.205Z,24.87
2023-02-11T17:54:15.543Z,23.87
2023-02-11T17:56:42.756Z,25.37
2023-02-11T17:59:11.842Z,25.43
2023-02-11T18:01:40.961Z,23.80
2023-02-11T18:04:13.515Z,26.50
2023-02-11T18:06:40.758Z,26.60
2023-02-11T18:09:07.578Z,25.37
2023-02-11T18:11:37.531Z,22.60
2023-02-11T18:14:07.692Z,24.00
2023-02-11T18:16:38.836Z,25.70
2023-02-11T18:19:07.455Z,26.50
2023-02-11T18:21:34.869Z,25.17
2023-02-11T18:24:06.552Z,26.10
2023-02-11T18:26:34.068Z,33.13
2023-02-11T18:29:01.052Z,30.77
2023-02-11T18:31:28.479Z,30.70
2023-02-11T18:33:55.673Z,24.10
2023-02-11T18:36:23.225Z,25.00
2023-02-11T18:38:52.439Z,28.40
2023-02-11T18:41:19.876Z,27.50
2023-02-11T18:43:46.711Z,27.13
2023-02-11T18:46:15.539Z,29.10
2023-02-11T18:48:44.648Z,43.43
2023-02-11T18:51:18.631Z,38.50
2023-02-11T18:53:46.298Z,27.97
2023-02-11T18:56:18.525Z,29.60
2023-02-11T18:58:45.953Z,31.23
2023-02-11T19:01:24.552Z,29.33
2023-02-11T19:03:51.904Z,27.60
2023-02-11T19:06:26.085Z,26.97
2023-02-11T19:08:58.259Z,24.30
2023-02-11T19:11:46.240Z,30.33
2023-02-11T19:14:15.212Z,27.37
2023-02-11T19:16:44.906Z,30.03
2023-02-11T19:19:13.633Z,28.60
2023-02-11T19:21:44.141Z,30.80
2023-02-11T19:24:15.348Z,31.30
2023-02-11T19:26:42.922Z,30.33
2023-02-11T19:29:10.046Z,28.47
2023-02-11T19:31:37.269Z,27.93
2023-02-11T19:34:04.974Z,29.20
2023-02-11T19:36:31.986Z,32.10
2023-02-11T19:39:04.733Z,31.80
2023-02-11T19:41:33.420Z,30.87
2023-02-11T19:44:02.134Z,28.27
2023-02-11T19:46:35.512Z,34.77
2023-02-11T19:49:04.142Z,27.40
2023-02-11T19:51:37.528Z,34.10
2023-02-11T19:54:04.982Z,30.83
2023-02-11T19:56:31.800Z,31.77
2023-02-11T19:58:58.946Z,34.80
2023-02-11T20:01:26.230Z,31.83
2023-02-11T20:03:55.145Z,33.10
2023-02-11T20:06:26.456Z,31.23
2023-02-11T20:09:00.161Z,30.23
2023-02-11T20:11:30.129Z,29.80
2023-02-11T20:13:58.576Z,33.17
2023-02-11T20:16:46.154Z,33.47
2023-02-11T20:19:17.807Z,32.03
2023-02-11T20:21:47.757Z,28.97
2023-02-11T20:24:19.037Z,30.77
2023-02-11T20:26:48.072Z,32.13
2023-02-11T20:29:17.205Z,35.97
2023-02-11T20:31:44.496Z,33.53
2023-02-11T20:34:12.605Z,34.10
2023-02-11T20:36:40.489Z,30.53
2023-02-11T20:39:08.756Z,34.30
2023-02-11T20:41:39.577Z,36.03
2023-02-11T20:44:09.791Z,34.20
2023-02-11T20:46:40.809Z,37.00
2023-02-11T20:49:10.744Z,30.47
2023-02-11T20:51:37.823Z,33.47
2023-02-11T20:54:06.157Z,32.37
2023-02-11T20:56:36.782Z,34.00
2023-02-11T20:59:05.714Z,33.90
2023-02-11T21:01:43.834Z,33.40
2023-02-11T21:04:17.901Z,33.30
2023-02-11T21:06:52.114Z,34.97
2023-02-11T21:09:22.958Z,33.93
2023-02-11T21:11:52.116Z,32.60
2023-02-11T21:14:22.187Z,34.30
2023-02-11T21:16:49.584Z,32.27
2023-02-11T21:19:16.951Z,34.17
2023-02-11T21:21:44.336Z,34.20
2023-02-11T21:24:12.404Z,32.13
2023-02-11T21:26:40.288Z,31.87
2023-02-11T21:29:08.509Z,32.77
2023-02-11T21:31:36.772Z,29.87
2023-02-11T21:34:04.580Z,33.90
2023-02-11T21:36:31.492Z,35.07
2023-02-11T21:38:58.859Z,34.87
2023-02-11T21:41:27.240Z,35.97
2023-02-11T21:43:54.747Z,29.87
2023-02-11T21:46:22.253Z,34.63
2023-02-11T21:48:49.742Z,31.13
2023-02-11T21:51:20.868Z,34.80
2023-02-11T21:53:47.947Z,31.63
2023-02-11T21:56:18.158Z,33.80
2023-02-11T21:58:46.457Z,32.53
2023-02-11T22:01:21.626Z,27.47
2023-02-11T22:03:49.312Z,31.30
2023-02-11T22:06:27.479Z,38.20
2023-02-11T22:08:55.661Z,33.20
2023-02-11T22:11:23.471Z,32.83
2023-02-11T22:13:56.106Z,31.80
2023-02-11T22:16:24.098Z,32.50
2023-02-11T22:18:51.413Z,26.33
2023-02-11T22:21:22.457Z,30.47
2023-02-11T22:23:50.860Z,27.43
2023-02-11T22:26:21.687Z,27.37
2023-02-11T22:28:51.750Z,30.77
2023-02-11T22:31:29.376Z,33.17
2023-02-11T22:34:07.072Z,31.90
2023-02-11T22:36:37.716Z,32.83
2023-02-11T22:39:17.746Z,33.57
2023-02-11T22:41:46.380Z,33.13
2023-02-11T22:44:14.958Z,32.43
2023-02-11T22:46:41.775Z,31.97
2023-02-11T22:49:09.694Z,31.77
2023-02-11T22:51:36.630Z,31.47
2023-02-11T22:54:07.679Z,34.07
2023-02-11T22:56:35.211Z,31.27
2023-02-11T22:59:05.858Z,29.93
2023-02-11T23:01:33.852Z,30.40
2023-02-11T23:04:03.941Z,32.10
2023-02-11T23:06:31.359Z,31.53
2023-02-11T23:08:58.728Z,33.20
2023-02-11T23:11:29.701Z,31.57
2023-02-11T23:13:56.720Z,26.23
2023-02-11T23:16:31.325Z,26.03
2023-02-11T23:19:07.050Z,30.83
2023-02-11T23:21:38.302Z,31.87
2023-02-11T23:24:14.471Z,28.40
2023-02-11T23:26:43.616Z,28.33
2023-02-11T23:29:11.292Z,31.87
2023-02-11T23:31:43.211Z,27.43
2023-02-11T23:34:10.148Z,25.90
2023-02-11T23:36:40.500Z,27.60
2023-02-11T23:39:07.383Z,24.27
2023-02-11T23:41:34.525Z,25.43
2023-02-11T23:44:01.292Z,22.37
2023-02-11T23:46:28.422Z,28.53
2023-02-11T23:48:55.750Z,28.23
2023-02-11T23:51:23.834Z,29.00
2023-02-11T23:53:52.507Z,26.23
2023-02-11T23:56:24.328Z,29.33
2023-02-11T23:58:54.988Z,30.07
